sensor_id;sensor_type;location;lat;lon;timestamp;temperature;humidity
20041;DHT22;10181;48.072;9.884;2023-11-21T00:02:25;7.70;99.90
20041;DHT22;10181;48.072;9.884;2023-11-21T00:04:50;7.70;99.90
20041;DHT22;10181;48.072;9.884;2023-11-21T00:07:17;7.80;99.90
20041;DHT22;10181;48.072;9.884;2023-11-21T00:09:43;7.70;99.90
20041;DHT22;10181;48.072;9.884;2023-11-21T00:12:08;7.70;99.90
20041;DHT22;10181;48.072;9.884;2023-11-21T00:14:40;7.70;99.90
20041;DHT22;10181;48.072;9.884;2023-11-21T00:17:06;7.70;99.90
20041;DHT22;10181;48.072;9.884;2023-11-21T00:19:32;7.60;99.90
20041;DHT22;10181;48.072;9.884;2023-11-21T00:21:59;7.60;99.90
20041;DHT22;10181;48.072;9.884;2023-11-21T00:24:24;7.50;99.90
20041;DHT22;10181;48.072;9.884;2023-11-21T00:26:51;7.40;99.90
20041;DHT22;10181;48.072;9.884;2023-11-21T00:29:16;7.20;99.90
20041;DHT22;10181;48.072;9.884;2023-11-21T00:31:44;7.20;99.90
20041;DHT22;10181;48.072;9.884;2023-11-21T00:34:11;7.10;99.90
20041;DHT22;10181;48.072;9.884;2023-11-21T00:36:36;7.10;99.90
20041;DHT22;10181;48.072;9.884;2023-11-21T00:39:02;7.10;99.90
20041;DHT22;10181;48.072;9.884;2023-11-21T00:41:28;7.10;99.90
20041;DHT22;10181;48.072;9.884;2023-11-21T00:43:54;7.10;99.90
20041;DHT22;10181;48.072;9.884;2023-11-21T00:46:20;7.10;99.90
20041;DHT22;10181;48.072;9.884;2023-11-21T00:48:46;7.10;99.90
20041;DHT22;10181;48.072;9.884;2023-11-21T00:51:12;7.10;99.90
20041;DHT22;10181;48.072;9.884;2023-11-21T00:53:37;7.00;99.90
20041;DHT22;10181;48.072;9.884;2023-11-21T00:56:06;7.00;99.90
20041;DHT22;10181;48.072;9.884;2023-11-21T00:58:34;7.00;99.90
20041;DHT22;10181;48.072;9.884;2023-11-21T01:00:59;7.00;99.90
20041;DHT22;10181;48.072;9.884;2023-11-21T01:03:25;6.90;99.90
20041;DHT22;10181;48.072;9.884;2023-11-21T01:05:50;6.90;99.90
20041;DHT22;10181;48.072;9.884;2023-11-21T01:08:16;6.80;99.90
20041;DHT22;10181;48.072;9.884;2023-11-21T01:10:42;6.80;99.90
20041;DHT22;10181;48.072;9.884;2023-11-21T01:13:10;6.80;99.90
20041;DHT22;10181;48.072;9.884;2023-11-21T01:15:36;6.80;99.90
20041;DHT22;10181;48.072;9.884;2023-11-21T01:18:04;6.90;99.90
20041;DHT22;10181;48.072;9.884;2023-11-21T01:20:30;6.80;99.90
20041;DHT22;10181;48.072;9.884;2023-11-21T01:22:56;6.80;99.90
20041;DHT22;10181;48.072;9.884;2023-11-21T01:25:30;6.80;99.90
20041;DHT22;10181;48.072;9.884;2023-11-21T01:27:56;6.80;99.90
20041;DHT22;10181;48.072;9.884;2023-11-21T01:30:21;6.80;99.90
20041;DHT22;10181;48.072;9.884;2023-11-21T01:32:47;6.80;99.90
20041;DHT22;10181;48.072;9.884;2023-11-21T01:35:13;6.80;99.90
20041;DHT22;10181;48.072;9.884;2023-11-21T01:37:39;6.80;99.90
20041;DHT22;10181;48.072;9.884;2023-11-21T01:40:05;6.90;99.90
20041;DHT22;10181;48.072;9.884;2023-11-21T01:42:36;6.90;99.90
20041;DHT22;10181;48.072;9.884;2023-11-21T01:45:03;6.80;99.90
20041;DHT22;10181;48.072;9.884;2023-11-21T01:47:33;6.80;99.90
20041;DHT22;10181;48.072;9.884;2023-11-21T01:49:59;6.80;99.90
20041;DHT22;10181;48.072;9.884;2023-11-21T01:52:25;6.80;99.90
20041;DHT22;10181;48.072;9.884;2023-11-21T01:54:52;6.70;99.90
20041;DHT22;10181;48.072;9.884;2023-11-21T01:57:19;6.70;99.90
20041;DHT22;10181;48.072;9.884;2023-11-21T01:59:47;6.60;99.90
20041;DHT22;10181;48.072;9.884;2023-11-21T02:02:14;6.60;99.90
20041;DHT22;10181;48.072;9.884;2023-11-21T02:04:41;6.60;99.90
20041;DHT22;10181;48.072;9.884;2023-11-21T02:07:06;6.60;99.90
20041;DHT22;10181;48.072;9.884;2023-11-21T02:09:32;6.50;99.90
20041;DHT22;10181;48.072;9.884;2023-11-21T02:12:04;6.50;99.90
20041;DHT22;10181;48.072;9.884;2023-11-21T02:14:30;6.50;99.90
20041;DHT22;10181;48.072;9.884;2023-11-21T02:16:56;6.50;99.90
20041;DHT22;10181;48.072;9.884;2023-11-21T02:19:23;6.50;99.90
20041;DHT22;10181;48.072;9.884;2023-11-21T02:21:51;6.50;99.90
20041;DHT22;10181;48.072;9.884;2023-11-21T02:24:23;6.40;99.90
20041;DHT22;10181;48.072;9.884;2023-11-21T02:26:49;6.40;99.90
20041;DHT22;10181;48.072;9.884;2023-11-21T02:29:18;6.40;99.90
20041;DHT22;10181;48.072;9.884;2023-11-21T02:31:48;6.30;99.90
20041;DHT22;10181;48.072;9.884;2023-11-21T02:34:17;6.30;99.90
20041;DHT22;10181;48.072;9.884;2023-11-21T02:36:46;6.30;99.90
20041;DHT22;10181;48.072;9.884;2023-11-21T02:39:15;6.30;99.90
20041;DHT22;10181;48.072;9.884;2023-11-21T02:41:42;6.30;99.90
20041;DHT22;10181;48.072;9.884;2023-11-21T02:44:08;6.30;99.90
20041;DHT22;10181;48.072;9.884;2023-11-21T02:46:36;6.30;99.90
20041;DHT22;10181;48.072;9.884;2023-11-21T02:49:02;6.20;99.90
20041;DHT22;10181;48.072;9.884;2023-11-21T02:51:29;6.20;99.90
20041;DHT22;10181;48.072;9.884;2023-11-21T02:53:55;6.10;99.90
20041;DHT22;10181;48.072;9.884;2023-11-21T02:56:25;6.10;99.90
20041;DHT22;10181;48.072;9.884;2023-11-21T02:58:51;6.10;99.90
20041;DHT22;10181;48.072;9.884;2023-11-21T03:01:17;6.10;99.90
20041;DHT22;10181;48.072;9.884;2023-11-21T03:03:43;6.10;99.90
20041;DHT22;10181;48.072;9.884;2023-11-21T03:06:08;6.10;99.90
20041;DHT22;10181;48.072;9.884;2023-11-21T03:08:34;6.00;99.90
20041;DHT22;10181;48.072;9.884;2023-11-21T03:11:01;6.00;99.90
20041;DHT22;10181;48.072;9.884;2023-11-21T03:13:28;6.00;99.90
20041;DHT22;10181;48.072;9.884;2023-11-21T03:15:54;6.00;99.90
20041;DHT22;10181;48.072;9.884;2023-11-21T03:18:19;6.00;99.90
20041;DHT22;10181;48.072;9.884;2023-11-21T03:20:47;6.00;99.90
20041;DHT22;10181;48.072;9.884;2023-11-21T03:23:13;6.00;99.90
20041;DHT22;10181;48.072;9.884;2023-11-21T03:25:38;6.00;99.90
20041;DHT22;10181;48.072;9.884;2023-11-21T03:28:04;6.00;99.90
20041;DHT22;10181;48.072;9.884;2023-11-21T03:30:30;6.00;99.90
20041;DHT22;10181;48.072;9.884;2023-11-21T03:32:55;6.00;99.90
20041;DHT22;10181;48.072;9.884;2023-11-21T03:35:22;6.00;99.90
20041;DHT22;10181;48.072;9.884;2023-11-21T03:37:47;6.00;99.90
20041;DHT22;10181;48.072;9.884;2023-11-21T03:40:13;6.10;99.90
20041;DHT22;10181;48.072;9.884;2023-11-21T03:42:39;6.10;99.90
20041;DHT22;10181;48.072;9.884;2023-11-21T03:45:05;6.10;99.90
20041;DHT22;10181;48.072;9.884;2023-11-21T03:47:31;6.10;99.90
20041;DHT22;10181;48.072;9.884;2023-11-21T03:49:57;6.10;99.90
20041;DHT22;10181;48.072;9.884;2023-11-21T03:52:23;6.10;99.90
20041;DHT22;10181;48.072;9.884;2023-11-21T03:54:49;6.20;99.90
20041;DHT22;10181;48.072;9.884;2023-11-21T03:57:14;6.10;99.90
20041;DHT22;10181;48.072;9.884;2023-11-21T03:59:41;6.20;99.90
20041;DHT22;10181;48.072;9.884;2023-11-21T04:02:07;6.10;99.90
20041;DHT22;10181;48.072;9.884;2023-11-21T04:04:33;6.10;99.90
20041;DHT22;10181;48.072;9.884;2023-11-21T04:06:59;6.10;99.90
20041;DHT22;10181;48.072;9.884;2023-11-21T04:09:25;6.00;99.90
20041;DHT22;10181;48.072;9.884;2023-11-21T04:11:52;6.10;99.90
20041;DHT22;10181;48.072;9.884;2023-11-21T04:14:17;6.10;99.90
20041;DHT22;10181;48.072;9.884;2023-11-21T04:16:43;6.10;99.90
20041;DHT22;10181;48.072;9.884;2023-11-21T04:19:09;6.10;99.90
20041;DHT22;10181;48.072;9.884;2023-11-21T04:21:36;6.00;99.90
20041;DHT22;10181;48.072;9.884;2023-11-21T04:24:02;6.00;99.90
20041;DHT22;10181;48.072;9.884;2023-11-21T04:26:27;6.00;99.90
20041;DHT22;10181;48.072;9.884;2023-11-21T04:28:53;6.00;99.90
20041;DHT22;10181;48.072;9.884;2023-11-21T04:31:18;6.00;99.90
20041;DHT22;10181;48.072;9.884;2023-11-21T04:33:44;6.00;99.90
20041;DHT22;10181;48.072;9.884;2023-11-21T04:36:10;6.00;99.90
20041;DHT22;10181;48.072;9.884;2023-11-21T04:38:36;6.00;99.90
20041;DHT22;10181;48.072;9.884;2023-11-21T04:41:01;6.00;99.90
20041;DHT22;10181;48.072;9.884;2023-11-21T04:43:27;6.00;99.90
20041;DHT22;10181;48.072;9.884;2023-11-21T04:45:54;5.90;99.90
20041;DHT22;10181;48.072;9.884;2023-11-21T04:48:19;6.00;99.90
20041;DHT22;10181;48.072;9.884;2023-11-21T04:50:45;5.90;99.90
20041;DHT22;10181;48.072;9.884;2023-11-21T04:53:11;5.80;99.90
20041;DHT22;10181;48.072;9.884;2023-11-21T04:55:43;5.80;99.90
20041;DHT22;10181;48.072;9.884;2023-11-21T04:58:09;5.70;99.90
20041;DHT22;10181;48.072;9.884;2023-11-21T05:00:35;5.70;99.90
20041;DHT22;10181;48.072;9.884;2023-11-21T05:03:02;5.70;99.90
20041;DHT22;10181;48.072;9.884;2023-11-21T05:05:28;5.70;99.90
20041;DHT22;10181;48.072;9.884;2023-11-21T05:07:55;5.70;99.90
20041;DHT22;10181;48.072;9.884;2023-11-21T05:10:20;5.70;99.90
20041;DHT22;10181;48.072;9.884;2023-11-21T05:12:48;5.70;99.90
20041;DHT22;10181;48.072;9.884;2023-11-21T05:15:16;5.70;99.90
20041;DHT22;10181;48.072;9.884;2023-11-21T05:17:43;5.70;99.90
20041;DHT22;10181;48.072;9.884;2023-11-21T05:20:27;5.70;99.90
20041;DHT22;10181;48.072;9.884;2023-11-21T05:22:53;5.60;99.90
20041;DHT22;10181;48.072;9.884;2023-11-21T05:25:18;5.60;99.90
20041;DHT22;10181;48.072;9.884;2023-11-21T05:27:45;5.60;99.90
20041;DHT22;10181;48.072;9.884;2023-11-21T05:30:11;5.50;99.90
20041;DHT22;10181;48.072;9.884;2023-11-21T05:32:38;5.60;99.90
20041;DHT22;10181;48.072;9.884;2023-11-21T05:35:04;5.60;99.90
20041;DHT22;10181;48.072;9.884;2023-11-21T05:37:35;5.50;99.90
20041;DHT22;10181;48.072;9.884;2023-11-21T05:40:01;5.60;99.90
20041;DHT22;10181;48.072;9.884;2023-11-21T05:42:34;5.60;99.90
20041;DHT22;10181;48.072;9.884;2023-11-21T05:45:00;5.60;99.90
20041;DHT22;10181;48.072;9.884;2023-11-21T05:47:40;5.60;99.90
20041;DHT22;10181;48.072;9.884;2023-11-21T05:50:07;5.60;99.90
20041;DHT22;10181;48.072;9.884;2023-11-21T05:52:36;5.60;99.90
20041;DHT22;10181;48.072;9.884;2023-11-21T05:55:03;5.60;99.90
20041;DHT22;10181;48.072;9.884;2023-11-21T05:57:30;5.60;99.90
20041;DHT22;10181;48.072;9.884;2023-11-21T05:59:55;5.60;99.90
20041;DHT22;10181;48.072;9.884;2023-11-21T06:02:21;5.70;99.90
20041;DHT22;10181;48.072;9.884;2023-11-21T06:04:47;5.70;99.90
20041;DHT22;10181;48.072;9.884;2023-11-21T06:07:12;5.70;99.90
20041;DHT22;10181;48.072;9.884;2023-11-21T06:09:38;5.70;99.90
20041;DHT22;10181;48.072;9.884;2023-11-21T06:12:04;5.70;99.90
20041;DHT22;10181;48.072;9.884;2023-11-21T06:14:30;5.70;99.90
20041;DHT22;10181;48.072;9.884;2023-11-21T06:16:55;5.70;99.90
20041;DHT22;10181;48.072;9.884;2023-11-21T06:19:22;5.70;99.90
20041;DHT22;10181;48.072;9.884;2023-11-21T06:21:48;5.70;99.90
20041;DHT22;10181;48.072;9.884;2023-11-21T06:24:14;5.70;99.90
20041;DHT22;10181;48.072;9.884;2023-11-21T06:26:41;5.70;99.90
20041;DHT22;10181;48.072;9.884;2023-11-21T06:29:06;5.70;99.90
20041;DHT22;10181;48.072;9.884;2023-11-21T06:31:32;5.70;99.90
20041;DHT22;10181;48.072;9.884;2023-11-21T06:33:58;5.60;99.90
20041;DHT22;10181;48.072;9.884;2023-11-21T06:36:25;5.60;99.90
20041;DHT22;10181;48.072;9.884;2023-11-21T06:38:52;5.60;99.90
20041;DHT22;10181;48.072;9.884;2023-11-21T06:41:17;5.60;99.90
20041;DHT22;10181;48.072;9.884;2023-11-21T06:43:43;5.60;99.90
20041;DHT22;10181;48.072;9.884;2023-11-21T06:46:12;5.60;99.90
20041;DHT22;10181;48.072;9.884;2023-11-21T06:48:42;5.60;99.90
20041;DHT22;10181;48.072;9.884;2023-11-21T06:51:08;5.70;99.90
20041;DHT22;10181;48.072;9.884;2023-11-21T06:53:33;5.70;99.90
20041;DHT22;10181;48.072;9.884;2023-11-21T06:55:59;5.70;99.90
20041;DHT22;10181;48.072;9.884;2023-11-21T06:58:25;5.70;99.90
20041;DHT22;10181;48.072;9.884;2023-11-21T07:00:50;5.70;99.90
20041;DHT22;10181;48.072;9.884;2023-11-21T07:03:17;5.70;99.90
20041;DHT22;10181;48.072;9.884;2023-11-21T07:05:44;5.70;99.90
20041;DHT22;10181;48.072;9.884;2023-11-21T07:08:10;5.60;99.90
20041;DHT22;10181;48.072;9.884;2023-11-21T07:10:36;5.70;99.90
20041;DHT22;10181;48.072;9.884;2023-11-21T07:13:02;5.60;99.90
20041;DHT22;10181;48.072;9.884;2023-11-21T07:15:28;5.70;99.90
20041;DHT22;10181;48.072;9.884;2023-11-21T07:17:53;5.70;99.90
20041;DHT22;10181;48.072;9.884;2023-11-21T07:20:19;5.70;99.90
20041;DHT22;10181;48.072;9.884;2023-11-21T07:22:45;5.70;99.90
20041;DHT22;10181;48.072;9.884;2023-11-21T07:25:11;5.80;99.90
20041;DHT22;10181;48.072;9.884;2023-11-21T07:27:37;5.80;99.90
20041;DHT22;10181;48.072;9.884;2023-11-21T07:30:03;5.90;99.90
20041;DHT22;10181;48.072;9.884;2023-11-21T07:32:30;5.90;99.90
20041;DHT22;10181;48.072;9.884;2023-11-21T07:34:56;5.90;99.90
20041;DHT22;10181;48.072;9.884;2023-11-21T07:37:23;5.90;99.90
20041;DHT22;10181;48.072;9.884;2023-11-21T07:39:49;5.90;99.90
20041;DHT22;10181;48.072;9.884;2023-11-21T07:42:14;6.00;99.90
20041;DHT22;10181;48.072;9.884;2023-11-21T07:44:40;6.00;99.90
20041;DHT22;10181;48.072;9.884;2023-11-21T07:47:06;6.00;99.90
20041;DHT22;10181;48.072;9.884;2023-11-21T07:49:32;6.10;99.90
20041;DHT22;10181;48.072;9.884;2023-11-21T07:51:57;6.10;99.90
20041;DHT22;10181;48.072;9.884;2023-11-21T07:54:23;6.10;99.90
20041;DHT22;10181;48.072;9.884;2023-11-21T07:56:48;6.20;99.90
20041;DHT22;10181;48.072;9.884;2023-11-21T07:59:14;6.20;99.90
20041;DHT22;10181;48.072;9.884;2023-11-21T08:01:40;6.10;99.90
20041;DHT22;10181;48.072;9.884;2023-11-21T08:04:06;6.20;99.90
20041;DHT22;10181;48.072;9.884;2023-11-21T08:06:32;6.20;99.90
20041;DHT22;10181;48.072;9.884;2023-11-21T08:08:58;6.30;99.90
20041;DHT22;10181;48.072;9.884;2023-11-21T08:11:24;6.30;99.90
20041;DHT22;10181;48.072;9.884;2023-11-21T08:13:50;6.40;99.90
20041;DHT22;10181;48.072;9.884;2023-11-21T08:16:15;6.40;99.90
20041;DHT22;10181;48.072;9.884;2023-11-21T08:18:42;6.50;99.90
20041;DHT22;10181;48.072;9.884;2023-11-21T08:21:07;6.50;99.90
20041;DHT22;10181;48.072;9.884;2023-11-21T08:23:33;6.40;99.90
20041;DHT22;10181;48.072;9.884;2023-11-21T08:25:59;6.40;99.90
20041;DHT22;10181;48.072;9.884;2023-11-21T08:28:25;6.40;99.90
20041;DHT22;10181;48.072;9.884;2023-11-21T08:30:53;6.30;99.90
20041;DHT22;10181;48.072;9.884;2023-11-21T08:33:22;6.30;99.90
20041;DHT22;10181;48.072;9.884;2023-11-21T08:35:48;6.40;99.90
20041;DHT22;10181;48.072;9.884;2023-11-21T08:38:14;6.40;99.90
20041;DHT22;10181;48.072;9.884;2023-11-21T08:40:40;6.40;99.90
20041;DHT22;10181;48.072;9.884;2023-11-21T08:43:05;6.50;99.90
20041;DHT22;10181;48.072;9.884;2023-11-21T08:45:32;6.50;99.90
20041;DHT22;10181;48.072;9.884;2023-11-21T08:48:00;6.50;99.90
20041;DHT22;10181;48.072;9.884;2023-11-21T08:50:26;6.60;99.90
20041;DHT22;10181;48.072;9.884;2023-11-21T08:52:52;6.60;99.90
20041;DHT22;10181;48.072;9.884;2023-11-21T08:55:17;6.70;99.90
20041;DHT22;10181;48.072;9.884;2023-11-21T08:57:45;6.80;99.90
20041;DHT22;10181;48.072;9.884;2023-11-21T09:00:12;6.90;99.90
20041;DHT22;10181;48.072;9.884;2023-11-21T09:02:41;6.90;99.90
20041;DHT22;10181;48.072;9.884;2023-11-21T09:05:11;6.90;99.90
20041;DHT22;10181;48.072;9.884;2023-11-21T09:07:37;6.90;99.90
20041;DHT22;10181;48.072;9.884;2023-11-21T09:10:04;6.90;99.90
20041;DHT22;10181;48.072;9.884;2023-11-21T09:12:33;6.90;99.90
20041;DHT22;10181;48.072;9.884;2023-11-21T09:15:02;6.80;99.90
20041;DHT22;10181;48.072;9.884;2023-11-21T09:17:27;6.80;99.90
20041;DHT22;10181;48.072;9.884;2023-11-21T09:19:53;6.90;99.90
20041;DHT22;10181;48.072;9.884;2023-11-21T09:22:19;6.90;99.90
20041;DHT22;10181;48.072;9.884;2023-11-21T09:24:45;7.00;99.90
20041;DHT22;10181;48.072;9.884;2023-11-21T09:27:10;7.00;99.90
20041;DHT22;10181;48.072;9.884;2023-11-21T09:29:36;6.90;99.90
20041;DHT22;10181;48.072;9.884;2023-11-21T09:32:05;6.90;99.90
20041;DHT22;10181;48.072;9.884;2023-11-21T09:34:34;6.90;99.90
20041;DHT22;10181;48.072;9.884;2023-11-21T09:37:05;6.90;99.90
20041;DHT22;10181;48.072;9.884;2023-11-21T09:39:32;7.00;99.90
20041;DHT22;10181;48.072;9.884;2023-11-21T09:42:07;7.10;99.90
20041;DHT22;10181;48.072;9.884;2023-11-21T09:45:24;7.20;99.90
20041;DHT22;10181;48.072;9.884;2023-11-21T09:47:24;7.20;99.90
20041;DHT22;10181;48.072;9.884;2023-11-21T09:49:50;7.30;99.90
20041;DHT22;10181;48.072;9.884;2023-11-21T09:52:27;7.40;99.90
20041;DHT22;10181;48.072;9.884;2023-11-21T09:54:54;7.40;99.90
20041;DHT22;10181;48.072;9.884;2023-11-21T09:57:20;7.50;99.90
20041;DHT22;10181;48.072;9.884;2023-11-21T09:59:54;7.50;99.90
20041;DHT22;10181;48.072;9.884;2023-11-21T10:02:27;7.60;99.90
20041;DHT22;10181;48.072;9.884;2023-11-21T10:04:56;7.70;99.90
20041;DHT22;10181;48.072;9.884;2023-11-21T10:07:22;7.70;99.90
20041;DHT22;10181;48.072;9.884;2023-11-21T10:09:50;7.60;99.90
20041;DHT22;10181;48.072;9.884;2023-11-21T10:12:16;7.60;99.90
20041;DHT22;10181;48.072;9.884;2023-11-21T10:14:43;7.50;99.90
20041;DHT22;10181;48.072;9.884;2023-11-21T10:17:12;7.60;99.90
20041;DHT22;10181;48.072;9.884;2023-11-21T10:19:41;7.60;99.90
20041;DHT22;10181;48.072;9.884;2023-11-21T10:22:08;7.50;99.90
20041;DHT22;10181;48.072;9.884;2023-11-21T10:24:34;7.40;99.90
20041;DHT22;10181;48.072;9.884;2023-11-21T10:27:00;7.30;99.90
20041;DHT22;10181;48.072;9.884;2023-11-21T10:29:29;7.20;99.90
20041;DHT22;10181;48.072;9.884;2023-11-21T10:31:56;7.20;99.90
20041;DHT22;10181;48.072;9.884;2023-11-21T10:34:24;7.20;99.90
20041;DHT22;10181;48.072;9.884;2023-11-21T10:36:50;7.30;99.90
20041;DHT22;10181;48.072;9.884;2023-11-21T10:39:25;7.60;99.90
20041;DHT22;10181;48.072;9.884;2023-11-21T10:41:56;7.60;99.90
20041;DHT22;10181;48.072;9.884;2023-11-21T10:44:21;7.70;99.90
20041;DHT22;10181;48.072;9.884;2023-11-21T10:46:54;7.60;99.90
20041;DHT22;10181;48.072;9.884;2023-11-21T10:49:26;7.70;99.90
20041;DHT22;10181;48.072;9.884;2023-11-21T10:51:53;7.50;99.90
20041;DHT22;10181;48.072;9.884;2023-11-21T10:54:23;7.50;99.90
20041;DHT22;10181;48.072;9.884;2023-11-21T10:56:56;7.50;99.90
20041;DHT22;10181;48.072;9.884;2023-11-21T10:59:22;7.60;99.90
20041;DHT22;10181;48.072;9.884;2023-11-21T11:01:50;7.70;99.90
20041;DHT22;10181;48.072;9.884;2023-11-21T11:04:22;7.70;99.90
20041;DHT22;10181;48.072;9.884;2023-11-21T11:07:02;7.80;99.90
20041;DHT22;10181;48.072;9.884;2023-11-21T11:09:30;8.00;99.90
20041;DHT22;10181;48.072;9.884;2023-11-21T11:11:59;8.10;99.90
20041;DHT22;10181;48.072;9.884;2023-11-21T11:14:24;8.10;99.90
20041;DHT22;10181;48.072;9.884;2023-11-21T11:16:54;8.10;99.90
20041;DHT22;10181;48.072;9.884;2023-11-21T11:19:20;8.10;99.90
20041;DHT22;10181;48.072;9.884;2023-11-21T11:22:01;8.20;99.90
20041;DHT22;10181;48.072;9.884;2023-11-21T11:31:09;8.30;99.90
20041;DHT22;10181;48.072;9.884;2023-11-21T11:33:45;8.50;99.90
20041;DHT22;10181;48.072;9.884;2023-11-21T11:36:36;8.50;99.90
20041;DHT22;10181;48.072;9.884;2023-11-21T11:39:04;8.50;99.90
20041;DHT22;10181;48.072;9.884;2023-11-21T11:41:50;8.60;99.90
20041;DHT22;10181;48.072;9.884;2023-11-21T11:47:29;8.50;99.90
20041;DHT22;10181;48.072;9.884;2023-11-21T11:52:40;8.50;99.90
20041;DHT22;10181;48.072;9.884;2023-11-21T11:55:08;8.50;99.90
20041;DHT22;10181;48.072;9.884;2023-11-21T11:57:35;8.40;99.90
20041;DHT22;10181;48.072;9.884;2023-11-21T12:00:20;8.30;99.90
20041;DHT22;10181;48.072;9.884;2023-11-21T12:02:59;8.30;99.90
20041;DHT22;10181;48.072;9.884;2023-11-21T12:05:28;8.30;99.90
20041;DHT22;10181;48.072;9.884;2023-11-21T12:07:55;8.40;99.90
20041;DHT22;10181;48.072;9.884;2023-11-21T12:10:27;8.30;99.90
20041;DHT22;10181;48.072;9.884;2023-11-21T12:13:13;8.40;99.90
20041;DHT22;10181;48.072;9.884;2023-11-21T12:15:39;8.40;99.90
20041;DHT22;10181;48.072;9.884;2023-11-21T12:18:07;8.80;99.90
20041;DHT22;10181;48.072;9.884;2023-11-21T12:20:33;9.60;99.90
20041;DHT22;10181;48.072;9.884;2023-11-21T12:23:04;10.50;99.90
20041;DHT22;10181;48.072;9.884;2023-11-21T12:25:31;11.20;99.90
20041;DHT22;10181;48.072;9.884;2023-11-21T12:28:02;11.90;99.90
20041;DHT22;10181;48.072;9.884;2023-11-21T12:30:33;12.00;99.90
20041;DHT22;10181;48.072;9.884;2023-11-21T12:33:02;12.50;99.90
20041;DHT22;10181;48.072;9.884;2023-11-21T12:35:29;12.30;99.90
20041;DHT22;10181;48.072;9.884;2023-11-21T12:37:56;12.30;99.90
20041;DHT22;10181;48.072;9.884;2023-11-21T12:40:25;12.10;99.90
20041;DHT22;10181;48.072;9.884;2023-11-21T12:42:58;11.70;99.90
20041;DHT22;10181;48.072;9.884;2023-11-21T12:45:28;11.00;99.90
20041;DHT22;10181;48.072;9.884;2023-11-21T12:47:56;10.50;99.90
20041;DHT22;10181;48.072;9.884;2023-11-21T12:50:25;10.30;99.90
20041;DHT22;10181;48.072;9.884;2023-11-21T12:52:58;9.90;99.90
20041;DHT22;10181;48.072;9.884;2023-11-21T12:55:24;9.60;99.90
20041;DHT22;10181;48.072;9.884;2023-11-21T12:57:53;9.50;99.90
20041;DHT22;10181;48.072;9.884;2023-11-21T13:00:32;9.40;99.90
20041;DHT22;10181;48.072;9.884;2023-11-21T13:02:59;9.10;99.90
20041;DHT22;10181;48.072;9.884;2023-11-21T13:05:29;9.00;99.90
20041;DHT22;10181;48.072;9.884;2023-11-21T13:08:00;8.90;99.90
20041;DHT22;10181;48.072;9.884;2023-11-21T13:10:29;8.70;99.90
20041;DHT22;10181;48.072;9.884;2023-11-21T13:13:02;8.60;99.90
20041;DHT22;10181;48.072;9.884;2023-11-21T13:15:31;8.50;99.90
20041;DHT22;10181;48.072;9.884;2023-11-21T13:17:58;8.40;99.90
20041;DHT22;10181;48.072;9.884;2023-11-21T13:20:27;8.00;99.90
20041;DHT22;10181;48.072;9.884;2023-11-21T13:22:55;7.60;99.90
20041;DHT22;10181;48.072;9.884;2023-11-21T13:25:29;7.50;99.90
20041;DHT22;10181;48.072;9.884;2023-11-21T13:27:55;7.50;99.90
20041;DHT22;10181;48.072;9.884;2023-11-21T13:30:21;7.50;99.90
20041;DHT22;10181;48.072;9.884;2023-11-21T13:32:55;7.50;99.90
20041;DHT22;10181;48.072;9.884;2023-11-21T13:35:28;7.40;99.90
20041;DHT22;10181;48.072;9.884;2023-11-21T13:38:07;7.40;99.90
20041;DHT22;10181;48.072;9.884;2023-11-21T13:40:34;7.40;99.90
20041;DHT22;10181;48.072;9.884;2023-11-21T13:43:05;7.50;99.90
20041;DHT22;10181;48.072;9.884;2023-11-21T13:45:35;7.60;99.90
20041;DHT22;10181;48.072;9.884;2023-11-21T13:48:02;7.60;99.90
20041;DHT22;10181;48.072;9.884;2023-11-21T13:50:28;7.60;99.90
20041;DHT22;10181;48.072;9.884;2023-11-21T13:53:01;7.60;99.90
20041;DHT22;10181;48.072;9.884;2023-11-21T13:55:50;7.50;99.90
20041;DHT22;10181;48.072;9.884;2023-11-21T13:58:22;7.50;99.90
20041;DHT22;10181;48.072;9.884;2023-11-21T14:00:51;7.50;99.90
20041;DHT22;10181;48.072;9.884;2023-11-21T14:03:23;7.40;99.90
20041;DHT22;10181;48.072;9.884;2023-11-21T14:05:57;7.30;99.90
20041;DHT22;10181;48.072;9.884;2023-11-21T14:08:25;7.30;99.90
20041;DHT22;10181;48.072;9.884;2023-11-21T14:10:57;7.30;99.90
20041;DHT22;10181;48.072;9.884;2023-11-21T14:13:23;7.30;99.90
20041;DHT22;10181;48.072;9.884;2023-11-21T14:15:50;7.30;99.90
20041;DHT22;10181;48.072;9.884;2023-11-21T14:18:25;7.30;99.90
20041;DHT22;10181;48.072;9.884;2023-11-21T14:21:04;7.30;99.90
20041;DHT22;10181;48.072;9.884;2023-11-21T14:23:31;7.30;99.90
20041;DHT22;10181;48.072;9.884;2023-11-21T14:25:58;7.30;99.90
20041;DHT22;10181;48.072;9.884;2023-11-21T14:28:26;7.30;99.90
20041;DHT22;10181;48.072;9.884;2023-11-21T14:30:52;7.30;99.90
20041;DHT22;10181;48.072;9.884;2023-11-21T14:33:17;7.40;99.90
20041;DHT22;10181;48.072;9.884;2023-11-21T14:35:43;7.40;99.90
20041;DHT22;10181;48.072;9.884;2023-11-21T14:38:10;7.40;99.90
20041;DHT22;10181;48.072;9.884;2023-11-21T14:40:36;7.40;99.90
20041;DHT22;10181;48.072;9.884;2023-11-21T14:43:04;7.40;99.90
20041;DHT22;10181;48.072;9.884;2023-11-21T14:45:33;7.40;99.90
20041;DHT22;10181;48.072;9.884;2023-11-21T14:48:00;7.40;99.90
20041;DHT22;10181;48.072;9.884;2023-11-21T14:50:41;7.30;99.90
20041;DHT22;10181;48.072;9.884;2023-11-21T14:53:07;7.30;99.90
20041;DHT22;10181;48.072;9.884;2023-11-21T14:55:33;7.30;99.90
20041;DHT22;10181;48.072;9.884;2023-11-21T14:58:18;7.30;99.90
20041;DHT22;10181;48.072;9.884;2023-11-21T15:00:56;7.20;99.90
20041;DHT22;10181;48.072;9.884;2023-11-21T15:03:26;7.20;99.90
20041;DHT22;10181;48.072;9.884;2023-11-21T15:06:02;7.20;99.90
20041;DHT22;10181;48.072;9.884;2023-11-21T15:08:53;7.10;99.90
20041;DHT22;10181;48.072;9.884;2023-11-21T15:11:26;7.10;99.90
20041;DHT22;10181;48.072;9.884;2023-11-21T15:13:56;7.00;99.90
20041;DHT22;10181;48.072;9.884;2023-11-21T15:16:22;6.90;99.90
20041;DHT22;10181;48.072;9.884;2023-11-21T15:18:48;6.90;99.90
20041;DHT22;10181;48.072;9.884;2023-11-21T15:21:14;6.80;99.90
20041;DHT22;10181;48.072;9.884;2023-11-21T15:23:40;6.80;99.90
20041;DHT22;10181;48.072;9.884;2023-11-21T15:26:07;6.80;99.90
20041;DHT22;10181;48.072;9.884;2023-11-21T15:28:35;6.80;99.90
20041;DHT22;10181;48.072;9.884;2023-11-21T15:31:01;6.70;99.90
20041;DHT22;10181;48.072;9.884;2023-11-21T15:33:28;6.70;99.90
20041;DHT22;10181;48.072;9.884;2023-11-21T15:35:53;6.70;99.90
20041;DHT22;10181;48.072;9.884;2023-11-21T15:38:20;6.70;99.90
20041;DHT22;10181;48.072;9.884;2023-11-21T15:40:47;6.70;99.90
20041;DHT22;10181;48.072;9.884;2023-11-21T15:43:12;6.60;99.90
20041;DHT22;10181;48.072;9.884;2023-11-21T15:45:39;6.60;99.90
20041;DHT22;10181;48.072;9.884;2023-11-21T15:48:05;6.60;99.90
20041;DHT22;10181;48.072;9.884;2023-11-21T15:50:31;6.60;99.90
20041;DHT22;10181;48.072;9.884;2023-11-21T15:52:57;6.60;99.90
20041;DHT22;10181;48.072;9.884;2023-11-21T15:55:26;6.60;99.90
20041;DHT22;10181;48.072;9.884;2023-11-21T15:57:52;6.60;99.90
20041;DHT22;10181;48.072;9.884;2023-11-21T16:00:18;6.60;99.90
20041;DHT22;10181;48.072;9.884;2023-11-21T16:02:46;6.60;99.90